createdAt,value
2022-08-20T00:00:19.426Z,60.53
2022-08-20T00:03:27.622Z,60.97
2022-08-20T00:06:31.835Z,61.49
2022-08-20T00:09:36.761Z,61.82
2022-08-20T00:12:45.216Z,62.18
2022-08-20T00:15:48.560Z,62.17
2022-08-20T00:18:51.606Z,62.56
2022-08-20T00:21:57.974Z,62.84
2022-08-20T00:25:01.127Z,62.95
2022-08-20T00:28:06.923Z,63.36
2022-08-20T00:31:11.958Z,63.41
2022-08-20T00:34:14.662Z,63.75
2022-08-20T00:37:18.901Z,63.69
2022-08-20T00:40:24.151Z,62.96
2022-08-20T00:43:36.032Z,62.90
2022-08-20T00:46:39.123Z,62.77
2022-08-20T00:49:41.590Z,62.90
2022-08-20T00:52:49.928Z,63.01
2022-08-20T00:55:52.984Z,62.74
2022-08-20T00:58:56.039Z,62.63
2022-08-20T01:01:59.711Z,62.26
2022-08-20T01:05:02.885Z,62.56
2022-08-20T01:08:06.681Z,62.13
2022-08-20T01:11:12.496Z,62.34
2022-08-20T01:14:27.772Z,62.03
2022-08-20T01:17:34.411Z,61.88
2022-08-20T01:20:40.098Z,61.93
2022-08-20T01:23:52.612Z,62.03
2022-08-20T01:26:56.922Z,62.22
2022-08-20T01:30:01.118Z,62.30
2022-08-20T01:33:08.855Z,62.24
2022-08-20T01:36:12.583Z,61.93
2022-08-20T01:39:19.216Z,61.94
2022-08-20T01:42:26.944Z,61.68
2022-08-20T01:45:31.023Z,61.47
2022-08-20T01:48:33.940Z,61.54
2022-08-20T01:51:36.529Z,61.62
2022-08-20T01:54:39.218Z,61.67
2022-08-20T01:57:43.221Z,61.87
2022-08-20T02:00:45.852Z,62.01
2022-08-20T02:03:48.758Z,62.10
2022-08-20T02:06:57.338Z,62.44
2022-08-20T02:10:00.421Z,61.97
2022-08-20T02:13:06.217Z,62.33
2022-08-20T02:16:09.040Z,62.34
2022-08-20T02:19:15.459Z,62.66
2022-08-20T02:22:22.801Z,62.58
2022-08-20T02:25:30.636Z,62.86
2022-08-20T02:28:35.022Z,63.61
2022-08-20T02:31:38.388Z,64.77
2022-08-20T02:35:02.290Z,65.39
2022-08-20T02:38:05.279Z,65.70
2022-08-20T02:41:08.562Z,65.80
2022-08-20T02:44:12.659Z,66.20
2022-08-20T02:47:15.350Z,66.56
2022-08-20T02:50:21.058Z,67.14
2022-08-20T02:53:24.612Z,67.11
2022-08-20T02:56:27.358Z,67.04
2022-08-20T02:59:31.513Z,67.29
2022-08-20T03:02:34.335Z,67.39
2022-08-20T03:05:38.742Z,67.58
2022-08-20T03:08:42.172Z,67.39
2022-08-20T03:11:45.441Z,67.58
2022-08-20T03:14:49.399Z,67.64
2022-08-20T03:17:52.385Z,66.21
2022-08-20T03:20:55.243Z,66.48
2022-08-20T03:23:58.549Z,66.45
2022-08-20T03:27:01.284Z,66.86
2022-08-20T03:30:07.006Z,67.13
2022-08-20T03:33:10.284Z,67.31
2022-08-20T03:36:12.846Z,67.68
2022-08-20T03:39:22.052Z,66.87
2022-08-20T03:42:24.852Z,65.89
2022-08-20T03:45:29.824Z,66.58
2022-08-20T03:48:32.852Z,66.37
2022-08-20T03:51:57.611Z,65.65
2022-08-20T03:54:58.200Z,65.64
2022-08-20T03:58:03.208Z,65.38
2022-08-20T04:01:36.718Z,65.56
2022-08-20T04:04:30.884Z,65.41
2022-08-20T04:07:33.895Z,65.40
2022-08-20T04:10:37.390Z,65.26
2022-08-20T04:13:42.657Z,65.85
2022-08-20T04:16:47.591Z,65.73
2022-08-20T04:19:51.949Z,65.45
2022-08-20T04:22:59.257Z,65.56
2022-08-20T04:26:02.399Z,65.20
2022-08-20T04:29:05.297Z,65.25
2022-08-20T04:32:09.653Z,65.67
2022-08-20T04:35:14.582Z,65.44
2022-08-20T04:38:19.484Z,65.47
2022-08-20T04:41:24.189Z,65.96
2022-08-20T04:44:27.560Z,68.64
2022-08-20T04:47:34.675Z,68.48
2022-08-20T04:50:39.462Z,72.01
2022-08-20T04:53:42.690Z,74.89
2022-08-20T04:56:45.502Z,77.63
2022-08-20T04:59:48.119Z,76.84
2022-08-20T05:02:52.114Z,77.64
2022-08-20T05:05:54.992Z,77.12
2022-08-20T05:08:59.252Z,76.06
2022-08-20T05:12:01.826Z,75.97
2022-08-20T05:15:05.325Z,75.52
2022-08-20T05:18:10.222Z,75.99
2022-08-20T05:21:13.005Z,77.58
2022-08-20T05:24:18.360Z,78.10
2022-08-20T05:27:25.019Z,77.98
2022-08-20T05:30:33.339Z,77.20
2022-08-20T05:33:39.517Z,77.14
2022-08-20T05:36:44.205Z,76.78
2022-08-20T05:39:46.843Z,76.03
2022-08-20T05:42:49.693Z,75.67
2022-08-20T05:45:56.566Z,75.65
2022-08-20T05:49:01.807Z,75.01
2022-08-20T05:52:05.369Z,73.89
2022-08-20T05:55:09.965Z,73.75
2022-08-20T05:58:18.544Z,73.66
2022-08-20T06:01:21.341Z,71.83
2022-08-20T06:04:24.859Z,71.52
2022-08-20T06:07:27.823Z,70.62
2022-08-20T06:10:30.378Z,68.43
2022-08-20T06:13:32.979Z,67.65
2022-08-20T06:16:37.407Z,65.41
2022-08-20T06:19:44.198Z,64.01
2022-08-20T06:22:47.354Z,63.44
2022-08-20T06:25:50.835Z,62.59
2022-08-20T06:28:54.263Z,62.28
2022-08-20T06:31:56.991Z,62.89
2022-08-20T06:35:02.440Z,63.87
2022-08-20T06:38:06.879Z,63.60
2022-08-20T06:41:09.327Z,62.31
2022-08-20T06:44:12.196Z,61.96
2022-08-20T06:47:15.109Z,61.64
2022-08-20T06:50:22.943Z,61.64
2022-08-20T06:53:25.663Z,61.52
2022-08-20T06:56:28.312Z,61.26
2022-08-20T06:59:31.180Z,61.71
2022-08-20T07:02:34.096Z,61.12
2022-08-20T07:05:38.556Z,60.49
2022-08-20T07:08:41.641Z,62.26
2022-08-20T07:11:44.155Z,63.32
2022-08-20T07:14:46.805Z,64.34
2022-08-20T07:17:51.697Z,66.72
2022-08-20T07:20:56.877Z,66.33
2022-08-20T07:23:59.505Z,65.23
2022-08-20T07:27:02.201Z,64.38
2022-08-20T07:30:25.542Z,64.01
2022-08-20T07:33:28.745Z,62.37
2022-08-20T07:36:33.844Z,61.10
2022-08-20T07:39:36.678Z,59.66
2022-08-20T07:42:40.698Z,58.17
2022-08-20T07:45:45.209Z,58.52
2022-08-20T07:48:52.836Z,58.37
2022-08-20T07:51:56.754Z,57.79
2022-08-20T07:54:59.450Z,56.62
2022-08-20T07:58:10.138Z,54.73
2022-08-20T08:01:12.939Z,54.05
2022-08-20T08:04:16.008Z,53.50
2022-08-20T08:07:20.240Z,51.77
2022-08-20T08:10:24.352Z,51.11
2022-08-20T08:13:28.122Z,49.63
2022-08-20T08:16:32.582Z,49.53
2022-08-20T08:19:38.874Z,49.67
2022-08-20T08:22:44.010Z,48.92
2022-08-20T08:25:46.848Z,49.37
2022-08-20T08:28:49.525Z,49.03
2022-08-20T08:31:55.667Z,49.44
2022-08-20T08:34:58.746Z,48.68
2022-08-20T08:38:02.848Z,47.76
2022-08-20T08:41:12.485Z,46.46
2022-08-20T08:44:21.820Z,48.72
2022-08-20T08:47:29.251Z,48.29
2022-08-20T08:50:54.140Z,48.26
2022-08-20T08:54:02.054Z,49.33
2022-08-20T08:57:08.569Z,50.61
2022-08-20T09:00:15.500Z,51.71
2022-08-20T09:03:24.491Z,50.55
2022-08-20T09:06:28.213Z,50.92
2022-08-20T09:09:34.623Z,49.51
2022-08-20T09:12:37.333Z,50.47
2022-08-20T09:15:39.911Z,49.58
2022-08-20T09:18:43.102Z,48.68
2022-08-20T09:21:45.806Z,48.82
2022-08-20T09:24:51.020Z,49.68
2022-08-20T09:27:53.824Z,50.16
2022-08-20T09:30:57.393Z,48.87
2022-08-20T09:34:01.066Z,47.72
2022-08-20T09:37:03.753Z,47.17
2022-08-20T09:40:09.887Z,48.65
2022-08-20T09:43:12.780Z,46.48
2022-08-20T09:46:15.195Z,47.07
2022-08-20T09:49:17.916Z,46.22
2022-08-20T09:52:24.706Z,45.67
2022-08-20T09:55:33.896Z,45.39
2022-08-20T09:58:39.983Z,46.21
2022-08-20T10:01:42.902Z,45.49
2022-08-20T10:04:45.829Z,45.55
2022-08-20T10:07:48.661Z,47.23
2022-08-20T10:10:52.871Z,47.99
2022-08-20T10:13:55.522Z,47.63
2022-08-20T10:16:59.833Z,49.49
2022-08-20T10:20:03.027Z,46.19
2022-08-20T10:23:05.596Z,44.19
2022-08-20T10:26:09.668Z,43.71
2022-08-20T10:29:12.149Z,43.15
2022-08-20T10:32:16.141Z,44.90
2022-08-20T10:35:18.789Z,48.13
2022-08-20T10:38:21.745Z,47.54
2022-08-20T10:41:25.535Z,49.49
2022-08-20T10:44:28.204Z,50.35
2022-08-20T10:47:31.512Z,49.52
2022-08-20T10:50:34.205Z,50.06
2022-08-20T10:53:36.964Z,50.37
2022-08-20T10:56:41.108Z,51.00
2022-08-20T10:59:44.138Z,52.24
2022-08-20T11:02:46.802Z,52.74
2022-08-20T11:05:49.359Z,52.15
2022-08-20T11:08:51.970Z,52.95
2022-08-20T11:11:56.802Z,50.39
2022-08-20T11:14:59.370Z,51.00
2022-08-20T11:18:01.868Z,48.91
2022-08-20T11:21:04.432Z,46.33
2022-08-20T11:24:07.053Z,46.08
2022-08-20T11:27:10.997Z,45.23
2022-08-20T11:30:14.977Z,48.33
2022-08-20T11:33:17.530Z,48.68
2022-08-20T11:36:26.423Z,48.29
2022-08-20T11:39:28.916Z,48.40
2022-08-20T11:42:32.726Z,47.18
2022-08-20T11:45:37.613Z,46.14
2022-08-20T11:48:40.430Z,46.30
2022-08-20T11:51:49.415Z,47.60
2022-08-20T11:54:55.087Z,47.26
2022-08-20T11:57:59.957Z,46.38
2022-08-20T12:01:03.221Z,47.36
2022-08-20T12:04:06.200Z,47.43
2022-08-20T12:07:09.243Z,47.82
2022-08-20T12:10:11.983Z,47.92
2022-08-20T12:13:15.980Z,46.32
2022-08-20T12:16:18.548Z,46.84
2022-08-20T12:19:21.109Z,46.38
2022-08-20T12:22:25.333Z,46.60
2022-08-20T12:25:28.237Z,45.69
2022-08-20T12:28:32.219Z,44.36
2022-08-20T12:31:34.801Z,43.38
2022-08-20T12:34:37.550Z,42.98
2022-08-20T12:37:40.233Z,41.00
2022-08-20T12:40:42.800Z,40.84
2022-08-20T12:43:46.752Z,39.95
2022-08-20T12:46:49.353Z,41.07
2022-08-20T12:49:52.595Z,42.62
2022-08-20T12:52:55.176Z,43.41
2022-08-20T12:55:57.813Z,41.89
2022-08-20T12:59:01.661Z,41.62
2022-08-20T13:02:14.227Z,42.87
2022-08-20T13:05:18.433Z,46.40
2022-08-20T13:08:20.976Z,51.19
2022-08-20T13:11:23.435Z,51.24
2022-08-20T13:14:27.392Z,50.51
2022-08-20T13:17:39.681Z,50.37
2022-08-20T13:20:42.503Z,51.28
2022-08-20T13:23:45.074Z,50.04
2022-08-20T13:26:47.509Z,49.51
2022-08-20T13:29:56.436Z,47.87
2022-08-20T13:33:01.110Z,45.45
2022-08-20T13:36:03.728Z,40.07
2022-08-20T13:39:06.844Z,36.08
2022-08-20T13:42:09.406Z,27.10
2022-08-20T13:45:13.185Z,26.60
2022-08-20T13:48:15.661Z,25.05
2022-08-20T13:51:19.137Z,27.19
2022-08-20T13:54:26.093Z,23.00
2022-08-20T13:57:32.762Z,19.01
2022-08-20T14:00:36.819Z,19.85
2022-08-20T14:03:39.528Z,18.89
2022-08-20T14:06:45.304Z,17.97
2022-08-20T14:09:48.367Z,24.47
2022-08-20T14:12:50.954Z,31.16
2022-08-20T14:15:55.223Z,33.67
2022-08-20T14:18:57.793Z,29.93
2022-08-20T14:22:00.351Z,31.34
2022-08-20T14:25:03.844Z,40.10
2022-08-20T14:28:12.568Z,41.06
2022-08-20T14:31:16.384Z,32.33
2022-08-20T14:34:19.053Z,19.98
2022-08-20T14:37:22.999Z,16.26
2022-08-20T14:40:26.302Z,19.37
2022-08-20T14:43:28.965Z,29.76
2022-08-20T14:46:32.785Z,34.74
2022-08-20T14:49:35.317Z,25.12
2022-08-20T14:52:38.020Z,19.51
2022-08-20T14:55:40.551Z,20.44
2022-08-20T14:58:43.069Z,27.28
2022-08-20T15:01:47.075Z,20.93
2022-08-20T15:04:54.193Z,22.28
2022-08-20T15:07:58.273Z,18.88
2022-08-20T15:11:01.941Z,26.50
2022-08-20T15:14:04.415Z,29.93
2022-08-20T15:17:08.211Z,39.61
2022-08-20T15:20:20.766Z,29.47
2022-08-20T15:23:23.963Z,22.71
2022-08-20T15:26:26.591Z,24.02
2022-08-20T15:29:29.262Z,26.77
2022-08-20T15:32:33.114Z,34.28
2022-08-20T15:35:35.545Z,30.11
2022-08-20T15:38:38.055Z,23.19
2022-08-20T15:41:40.673Z,27.76
2022-08-20T15:45:27.566Z,38.85
2022-08-20T15:48:34.098Z,36.65
2022-08-20T15:51:41.925Z,26.74
2022-08-20T15:54:45.255Z,22.89
2022-08-20T15:57:54.945Z,19.18
2022-08-20T16:01:24.789Z,18.47
2022-08-20T16:05:03.187Z,18.52
2022-08-20T16:08:17.982Z,20.16
2022-08-20T16:11:25.162Z,20.78
2022-08-20T16:14:30.105Z,30.57
2022-08-20T16:17:41.562Z,39.46
2022-08-20T16:20:48.301Z,42.02
2022-08-20T16:23:51.000Z,33.76
2022-08-20T16:27:10.409Z,23.12
2022-08-20T16:30:20.886Z,19.15
2022-08-20T16:33:28.818Z,16.90
2022-08-20T16:36:37.449Z,16.73
2022-08-20T16:39:44.912Z,22.44
2022-08-20T16:42:52.209Z,27.34
2022-08-20T16:45:56.925Z,20.17
2022-08-20T16:49:05.626Z,17.59
2022-08-20T16:52:08.703Z,15.57
2022-08-20T16:55:11.930Z,17.66
2022-08-20T16:58:14.723Z,23.53
2022-08-20T17:01:17.415Z,26.11
2022-08-20T17:04:23.396Z,34.20
2022-08-20T17:07:29.830Z,38.68
2022-08-20T17:10:39.700Z,41.25
2022-08-20T17:13:44.686Z,41.46
2022-08-20T17:16:49.714Z,45.93
2022-08-20T17:19:57.328Z,43.27
2022-08-20T17:23:11.228Z,49.04
2022-08-20T17:26:26.307Z,50.86
2022-08-20T17:29:31.495Z,51.26
2022-08-20T17:32:34.389Z,50.53
2022-08-20T17:35:42.977Z,49.40
2022-08-20T17:38:49.270Z,48.74
2022-08-20T17:41:56.034Z,37.54
2022-08-20T17:45:04.610Z,36.05
2022-08-20T17:48:13.273Z,36.39
2022-08-20T17:51:19.699Z,35.75
2022-08-20T17:54:24.364Z,35.98
2022-08-20T17:57:31.698Z,35.66
2022-08-20T18:00:34.770Z,37.51
2022-08-20T18:03:37.696Z,37.31
2022-08-20T18:06:45.804Z,38.42
2022-08-20T18:09:53.860Z,37.26
2022-08-20T18:13:01.135Z,38.18
2022-08-20T18:16:05.091Z,37.84
2022-08-20T18:19:15.294Z,39.25
2022-08-20T18:22:21.780Z,37.84
2022-08-20T18:25:33.622Z,37.87
2022-08-20T18:36:50.775Z,42.56
2022-08-20T18:40:46.136Z,42.16
2022-08-20T18:48:00.977Z,43.45
2022-08-20T18:59:38.991Z,43.37
2022-08-20T19:02:56.017Z,43.16
2022-08-20T19:06:08.800Z,44.26
2022-08-20T19:09:15.741Z,44.95
2022-08-20T19:12:33.829Z,43.55
2022-08-20T19:15:41.190Z,43.86
2022-08-20T19:18:47.865Z,43.48
2022-08-20T19:21:50.759Z,43.77
2022-08-20T19:24:56.760Z,42.66
2022-08-20T19:28:01.608Z,44.16
2022-08-20T19:31:17.122Z,42.40
2022-08-20T19:34:23.989Z,42.34
2022-08-20T19:37:39.662Z,44.66
2022-08-20T19:40:47.152Z,43.04
2022-08-20T19:43:55.263Z,43.17
2022-08-20T19:47:00.220Z,42.67
2022-08-20T19:50:16.908Z,43.14
2022-08-20T19:53:30.373Z,45.14
2022-08-20T19:56:40.748Z,44.76
2022-08-20T19:59:52.842Z,45.08
2022-08-20T20:02:57.755Z,44.54
2022-08-20T20:06:02.400Z,45.61
2022-08-20T20:09:08.144Z,43.63
2022-08-20T20:12:19.265Z,44.20
2022-08-20T20:15:26.040Z,43.83
2022-08-20T20:18:32.529Z,45.51
2022-08-20T20:21:39.133Z,44.76
2022-08-20T20:24:44.965Z,45.81
2022-08-20T20:27:49.853Z,45.21
2022-08-20T20:30:52.749Z,45.39
2022-08-20T20:33:59.246Z,44.63
2022-08-20T20:37:04.954Z,46.27
2022-08-20T20:40:19.082Z,44.63
2022-08-20T20:43:28.481Z,44.71
2022-08-20T20:46:33.074Z,45.42
2022-08-20T20:49:49.297Z,46.49
2022-08-20T20:52:55.495Z,45.73
2022-08-20T20:56:00.206Z,47.08
2022-08-20T20:59:06.788Z,45.28
2022-08-20T21:02:10.211Z,46.21
2022-08-20T21:05:16.643Z,46.37
2022-08-20T21:08:19.697Z,46.39
2022-08-20T21:11:22.669Z,46.36
2022-08-20T21:14:25.329Z,46.33
2022-08-20T21:17:28.060Z,46.59
2022-08-20T21:20:32.368Z,46.18
2022-08-20T21:23:40.270Z,47.21
2022-08-20T21:26:45.030Z,46.71
2022-08-20T21:29:47.731Z,47.15
2022-08-20T21:32:50.782Z,47.60
2022-08-20T21:35:54.905Z,47.69
2022-08-20T21:38:57.813Z,48.00
2022-08-20T21:42:02.979Z,48.76
2022-08-20T21:45:08.211Z,49.83
2022-08-20T21:48:11.476Z,51.18
2022-08-20T21:51:15.405Z,51.93
2022-08-20T21:54:18.501Z,52.94
2022-08-20T21:57:22.640Z,52.69
2022-08-20T22:00:52.357Z,52.09
2022-08-20T22:03:55.363Z,52.42
2022-08-20T22:06:59.522Z,52.68
2022-08-20T22:10:04.284Z,52.85
2022-08-20T22:13:07.348Z,53.17
2022-08-20T22:16:10.881Z,55.63
2022-08-20T22:19:16.234Z,55.55
2022-08-20T22:22:21.709Z,54.80
2022-08-20T22:25:24.410Z,54.75
2022-08-20T22:28:27.282Z,52.53
2022-08-20T22:31:31.172Z,51.63
2022-08-20T22:34:35.624Z,50.72
2022-08-20T22:37:39.757Z,50.27
2022-08-20T22:40:42.687Z,52.01
2022-08-20T22:43:55.699Z,54.87
2022-08-20T22:47:02.827Z,56.09
2022-08-20T22:50:06.597Z,56.85
2022-08-20T22:53:11.605Z,57.42
2022-08-20T22:56:21.902Z,58.39
2022-08-20T22:59:25.840Z,58.68
2022-08-20T23:02:28.609Z,59.35
2022-08-20T23:05:32.953Z,59.30
2022-08-20T23:08:38.086Z,59.58
2022-08-20T23:11:40.823Z,59.85
2022-08-20T23:14:43.491Z,59.71
2022-08-20T23:17:46.396Z,60.38
2022-08-20T23:20:53.394Z,60.40
2022-08-20T23:23:57.416Z,59.60
2022-08-20T23:27:00.313Z,59.07
2022-08-20T23:30:02.940Z,58.96
2022-08-20T23:33:05.763Z,58.89
2022-08-20T23:36:10.353Z,59.26
2022-08-20T23:39:14.406Z,60.27
2022-08-20T23:42:17.700Z,59.63
2022-08-20T23:45:20.448Z,61.01
2022-08-20T23:48:23.352Z,62.08
2022-08-20T23:51:26.176Z,62.89
2022-08-20T23:54:33.805Z,63.54
2022-08-20T23:57:37.647Z,63.51
